Tropical Cyclones
[Index]
Main Index Home Page Stock Weather Photos Extreme Storms Discussion Storm News and Storm Chasing Reports Tropical Cyclones / Hurricanes / Typhoons Weather Data and Links Wild Fires / Bushfires Weather Observation Techniques Weather Picture Catalogue Tornado Pictures and Reports Stock Video Footage and DVDs for sale
Season 2019-2020 Tropical Cyclone AMBALI Track Map
Season 2019-2020 Summaries (Operational Data): [AU] [SIO] [SPAC] [SH]
<<- Previous TC | 2019-2020 Season | Next TC ->>

click for intensity scale information  Lat/long Grid: Show Hide

 Date Labels: Show Hide

Operational Tropical Cyclone Data

Name: AMBALI
Number: 2003

02 Dec 2019 06:00 UTC to 08 Dec 2019 12:00 UTC

    date/time    lat    long     hPa   cat  kts
2019-12-02 06    3.9    67.8    1010         15          
2019-12-02 12    3.9    66.6    1010         15          
2019-12-02 18    3.9    65.5    1010         15          
2019-12-03 00    4.1    65.3    1010         15          
2019-12-03 06    4.2    65.2    1009         15          
2019-12-03 12    4.3    65.0    1005         20          
2019-12-03 18    4.6    65.0    1007         20          
2019-12-04 00    5.1    65.0    1007         25          
2019-12-04 06    5.8    64.7    1003         30          
2019-12-04 12    6.5    64.6    1004         30          
2019-12-04 18    7.3    64.1    1006    1    35          
2019-12-05 00    7.8    63.6    1006    1    35          
2019-12-05 06    8.6    63.2     997    2    50          
2019-12-05 12    9.2    62.8     986    3    70          
2019-12-05 18    9.9    62.4     964    4   100          
2019-12-06 00   10.5    62.2     929    5   135          
2019-12-06 06   10.9    62.2     953    5   110          
2019-12-06 12   11.4    62.2     971    4    90          
2019-12-06 18   11.5    62.5     975    3    85          
2019-12-07 00   12.0    62.9     983    3    75          
2019-12-07 06   12.4    63.1     992    2    60          
2019-12-07 12   13.2    63.0     995    2    50          
2019-12-07 18   14.1    62.8    1003    1    40          
2019-12-08 00   14.9    62.2    1006    1    35          
2019-12-08 06   15.2    61.7    1009         25          
2019-12-08 12   15.5    61.2    1007         20          
Winds are 10-min average.

Tropical cyclone tracks developed by Michael Bath using operational warnings and advisories and Google Maps.


[Australian Severe Weather index] [Copyright Notice] [Email Contacts] [Search This Site] [Privacy Policy]
Document: tropical_cyclone_ambali.htm Updated: 11 March 2020